Go (North)west!

The 24 hour prognosis looks promising:
ESSA 101010Z 101818 20007KT 9999 SCT035=

The plan is thus to fly Uppsala-Borlänge-Mora-Borlänge-Uppsala and in nerd language it looks like this
(FPL-SEKUZ-VX
-C150/L-S/C
-ESKC0800
-N0090F045 DCT 6010N01630E DCT
-ESSD0100
-OPR/UPPSALA FK RMK/SKOL DOF/070711 ORGN/ESSAZPZX)

FPL-SEKUZ-VX
-C150/L-S/C
-ESSD0940
-N0090A025 DCT 6045N01450E DCT
-ESKM0040
-RMK/SKOL DOF/070711 ORGN/ESSAZPZX)

 

(FPL-SEKUZ-VX
-C150/L-S/C
-ESKM1130
-N0090A025 DCT 6045N01450E DCT
-ESSD0035
-RMK/SKOL DOF/070711 ORGN/ESSAZPZX)

(FPL-SEKUZ-VX
-C150/L-S/C
-ESSD1300
-N0090F035 DCT 6010N01630E DCT
-ESKC0100
-RMK/RMK SKOL DOF/070711 ORGN/ESSAZPZX)

Advertisements

Leave a Reply

Fill in your details below or click an icon to log in:

WordPress.com Logo

You are commenting using your WordPress.com account. Log Out / Change )

Twitter picture

You are commenting using your Twitter account. Log Out / Change )

Facebook photo

You are commenting using your Facebook account. Log Out / Change )

Google+ photo

You are commenting using your Google+ account. Log Out / Change )

Connecting to %s

%d bloggers like this: